Time;durP1;ratioP1;P1;durP2;ratioP2;P2;SDS_P1;SDS_P2;PMS_P1;PMS_P2;Temp;Humidity;BMP_temperature;BMP_pressure;BME280_temperature;BME280_humidity;BME280_pressure;Samples;Min_cycle;Max_cycle;Signal;HPM_P1;HPM_P2
2022/10/17 00:02:08;;;;;;;3.50;1.73;;;;;;;11.61;95.99;100291.00;10446815;28;20049;-76
2022/10/17 00:07:10;;;;;;;2.58;2.05;;;;;;;11.62;95.23;100300.06;10447306;28;20045;-76
2022/10/17 00:12:12;;;;;;;3.25;1.88;;;;;;;11.61;95.16;100293.75;10447480;28;20037;-76
2022/10/17 00:17:15;;;;;;;3.83;2.13;;;;;;;11.67;94.67;100286.28;10447025;28;20061;-75
2022/10/17 00:22:17;;;;;;;3.65;2.40;;;;;;;11.74;94.99;100282.03;10448376;28;20041;-75
2022/10/17 00:27:19;;;;;;;2.92;2.10;;;;;;;11.69;93.96;100264.81;10448373;28;20041;-75
2022/10/17 00:32:21;;;;;;;5.38;2.33;;;;;;;11.61;93.74;100266.28;10445873;28;20053;-76
2022/10/17 00:37:24;;;;;;;4.28;2.65;;;;;;;11.60;93.73;100277.56;10448054;28;20504;-76
2022/10/17 00:42:27;;;;;;;3.78;1.80;;;;;;;11.60;93.94;100266.56;10446636;28;20060;-76
2022/10/17 00:47:29;;;;;;;3.63;1.67;;;;;;;11.59;93.31;100270.44;10444248;28;20048;-76
2022/10/17 00:52:32;;;;;;;2.42;1.48;;;;;;;11.52;93.10;100262.56;10446919;28;20041;-76
2022/10/17 00:57:34;;;;;;;3.03;1.70;;;;;;;11.46;92.83;100277.50;10445918;28;20419;-76
2022/10/17 01:02:36;;;;;;;2.30;1.70;;;;;;;11.41;92.41;100280.31;10445173;28;20419;-76
2022/10/17 01:07:39;;;;;;;1.33;1.23;;;;;;;11.44;91.62;100272.28;10428821;28;20389;-76
2022/10/17 01:13:03;;;;;;;1.75;1.30;;;;;;;11.44;91.34;100288.75;10455012;28;20048;-76
2022/10/17 01:18:27;;;;;;;2.70;1.35;;;;;;;11.44;90.50;100282.44;10443841;28;20064;-76
2022/10/17 01:24:00;;;;;;;0.80;0.75;;;;;;;11.37;89.34;100279.25;10429439;28;20052;-76
2022/10/17 01:29:24;;;;;;;2.10;1.25;;;;;;;11.35;88.66;100270.50;10428636;28;20037;-76
2022/10/17 01:34:29;;;;;;;2.13;1.70;;;;;;;11.34;87.77;100255.94;10443441;28;20487;-76
2022/10/17 01:39:48;;;;;;;1.95;1.52;;;;;;;11.30;87.04;100257.66;10446186;28;20428;-75
2022/10/17 01:45:09;;;;;;;2.33;1.42;;;;;;;11.28;85.65;100262.63;10427557;28;20038;-75
2022/10/17 01:50:15;;;;;;;2.47;1.50;;;;;;;11.30;85.25;100265.09;10402354;28;20045;-75
2022/10/17 01:55:22;;;;;;;2.30;1.10;;;;;;;11.27;84.29;100268.41;10440542;28;20042;-75
2022/10/17 02:00:26;;;;;;;2.90;1.40;;;;;;;11.29;84.63;100272.50;10427968;28;20051;-75
2022/10/17 02:05:33;;;;;;;2.55;1.15;;;;;;;11.14;84.26;100262.53;10443462;28;20638;-76
2022/10/17 02:11:14;;;;;;;2.13;1.43;;;;;;;11.04;84.12;100284.63;10413951;28;20168;-75
2022/10/17 02:16:33;;;;;;;1.65;1.30;;;;;;;10.88;82.59;100283.16;10429936;28;20054;-75
2022/10/17 02:21:46;;;;;;;1.67;0.88;;;;;;;10.68;81.08;100277.88;10400400;28;20042;-74
2022/10/17 02:27:11;;;;;;;1.55;0.90;;;;;;;10.62;80.52;100274.41;10441744;28;20049;-75
2022/10/17 02:32:22;;;;;;;1.40;1.02;;;;;;;10.49;80.63;100278.63;10435275;28;20041;-74
2022/10/17 02:37:27;;;;;;;4.60;1.00;;;;;;;10.51;80.09;100289.31;10435392;28;20056;-75
2022/10/17 02:42:30;;;;;;;1.08;0.90;;;;;;;10.53;80.39;100282.41;10449959;28;20041;-75
2022/10/17 02:47:39;;;;;;;0.63;0.50;;;;;;;10.43;80.20;100274.31;10435046;28;20049;-74
2022/10/17 02:52:51;;;;;;;0.77;0.50;;;;;;;10.43;79.88;100285.28;10450782;28;20048;-75
2022/10/17 02:57:59;;;;;;;0.70;0.63;;;;;;;10.38;79.75;100292.72;10407693;28;20428;-75
2022/10/17 03:03:17;;;;;;;0.95;0.85;;;;;;;10.47;80.26;100291.00;10393303;28;20053;-75
2022/10/17 03:08:20;;;;;;;1.58;0.90;;;;;;;10.45;80.69;100288.56;10432321;28;20514;-74
2022/10/17 03:13:23;;;;;;;2.78;0.90;;;;;;;10.44;81.01;100292.41;10449172;28;20053;-75
2022/10/17 03:18:25;;;;;;;1.90;1.25;;;;;;;10.61;80.39;100285.66;10449272;28;20057;-75
2022/10/17 03:23:32;;;;;;;0.90;0.55;;;;;;;10.58;80.99;100270.56;10447988;28;20056;-74
2022/10/17 03:28:36;;;;;;;1.35;0.65;;;;;;;10.51;80.50;100273.66;10448238;28;20043;-75
2022/10/17 03:33:39;;;;;;;2.55;0.60;;;;;;;10.41;80.66;100267.44;10448325;28;20042;-75
2022/10/17 03:38:42;;;;;;;3.58;0.80;;;;;;;10.30;80.46;100264.00;10435264;28;20053;-74
2022/10/17 03:43:44;;;;;;;0.60;0.60;;;;;;;10.36;80.27;100264.75;10446875;28;20041;-75
2022/10/17 03:48:47;;;;;;;2.22;0.73;;;;;;;10.20;81.37;100231.97;10446792;28;20404;-75
2022/10/17 03:53:51;;;;;;;2.63;1.30;;;;;;;10.22;80.72;100240.75;10459529;28;20049;-75
2022/10/17 03:58:54;;;;;;;1.60;0.93;;;;;;;10.18;80.72;100239.66;10449425;28;20420;-76
2022/10/17 04:03:56;;;;;;;4.00;1.23;;;;;;;10.09;80.12;100227.69;10432005;28;20511;-76
2022/10/17 04:09:03;;;;;;;1.92;0.93;;;;;;;10.10;79.76;100223.03;10425209;28;20430;-76
2022/10/17 04:14:26;;;;;;;1.77;0.80;;;;;;;10.13;79.48;100219.72;10454947;28;20049;-75
2022/10/17 04:19:28;;;;;;;1.00;0.63;;;;;;;10.18;79.05;100212.25;10430120;28;20408;-76
2022/10/17 04:24:31;;;;;;;0.98;0.68;;;;;;;10.19;78.56;100204.84;10461366;28;20053;-77
2022/10/17 04:29:40;;;;;;;1.83;0.82;;;;;;;10.15;78.52;100204.59;10446390;28;20052;-76
2022/10/17 04:34:51;;;;;;;0.60;0.60;;;;;;;10.22;79.15;100201.53;10446690;28;20516;-77
2022/10/17 04:39:55;;;;;;;2.65;0.95;;;;;;;10.38;79.39;100196.72;10446813;28;20060;-77
2022/10/17 04:44:57;;;;;;;0.98;0.60;;;;;;;10.40;79.40;100200.81;10429964;28;20045;-77
2022/10/17 04:50:02;;;;;;;0.47;0.47;;;;;;;10.44;79.45;100207.38;10447693;28;20384;-76
2022/10/17 04:55:08;;;;;;;0.88;0.80;;;;;;;10.36;79.63;100216.22;10454182;28;20045;-76
2022/10/17 05:00:11;;;;;;;2.42;0.70;;;;;;;10.37;78.68;100215.09;10459886;28;20041;-76
2022/10/17 05:05:40;;;;;;;2.03;0.50;;;;;;;10.30;77.35;100192.69;10469413;28;20049;-76
2022/10/17 05:10:45;;;;;;;2.00;0.40;;;;;;;10.08;76.83;100184.13;10444967;28;20041;-77
2022/10/17 05:15:49;;;;;;;0.50;0.47;;;;;;;10.02;77.48;100197.03;10444016;28;20045;-76
2022/10/17 05:20:51;;;;;;;1.40;0.60;;;;;;;9.94;78.45;100194.94;10448287;28;20508;-75
2022/10/17 05:25:54;;;;;;;1.33;0.50;;;;;;;9.90;79.31;100204.84;10445662;28;20041;-75
2022/10/17 05:31:06;;;;;;;1.85;0.60;;;;;;;9.82;78.59;100191.75;10418253;28;20050;-75
2022/10/17 05:36:09;;;;;;;1.17;0.57;;;;;;;9.71;79.05;100179.22;10448061;28;20051;-75
2022/10/17 05:41:11;;;;;;;7.88;1.45;;;;;;;9.71;78.76;100191.00;10444317;28;20516;-76
2022/10/17 05:46:14;;;;;;;1.38;0.52;;;;;;;9.77;78.76;100195.34;10444283;28;20057;-74
2022/10/17 05:51:16;;;;;;;0.60;0.30;;;;;;;9.83;78.65;100191.47;10443654;28;20041;-73
2022/10/17 05:56:19;;;;;;;3.05;0.60;;;;;;;9.82;78.17;100183.53;10412039;28;20539;-74
2022/10/17 06:01:23;;;;;;;2.10;0.40;;;;;;;9.85;78.78;100188.44;10418950;28;20042;-75
2022/10/17 06:06:26;;;;;;;2.03;0.55;;;;;;;9.89;78.71;100193.06;10419985;28;20038;-75
2022/10/17 06:11:29;;;;;;;1.30;0.68;;;;;;;9.91;79.20;100168.94;10403322;28;20052;-73
2022/10/17 06:16:31;;;;;;;1.42;0.50;;;;;;;10.02;79.04;100175.13;10418754;28;20053;-76
2022/10/17 06:21:36;;;;;;;1.65;0.50;;;;;;;10.03;78.31;100178.66;10403411;28;20045;-75
2022/10/17 06:26:48;;;;;;;3.00;0.77;;;;;;;10.20;78.33;100174.38;10459837;28;20041;-75
2022/10/17 06:31:52;;;;;;;1.65;0.52;;;;;;;10.66;77.48;100168.44;10443742;28;20037;-75
2022/10/17 06:36:55;;;;;;;1.67;0.60;;;;;;;10.99;74.94;100158.41;10443569;28;20057;-75
2022/10/17 06:42:00;;;;;;;0.70;0.25;;;;;;;11.07;74.58;100154.97;10442695;28;20041;-75
2022/10/17 06:47:20;;;;;;;0.68;0.30;;;;;;;10.83;74.77;100157.78;10443563;28;20041;-75
2022/10/17 06:52:23;;;;;;;3.42;0.65;;;;;;;10.68;75.40;100160.72;10427080;28;20047;-75
2022/10/17 06:57:48;;;;;;;1.00;0.40;;;;;;;10.46;77.93;100158.50;10444177;28;20049;-75
2022/10/17 07:03:05;;;;;;;2.55;0.50;;;;;;;10.15;78.95;100170.88;10443959;28;20052;-75
2022/10/17 07:08:08;;;;;;;2.97;0.50;;;;;;;9.82;80.29;100145.97;10444381;28;20049;-75
2022/10/17 07:13:14;;;;;;;2.20;0.95;;;;;;;9.55;82.35;100160.19;10445830;28;20511;-75
2022/10/17 07:18:16;;;;;;;2.05;0.50;;;;;;;9.38;82.94;100162.53;10449851;28;20049;-75
2022/10/17 07:23:18;;;;;;;0.90;0.57;;;;;;;9.14;84.61;100173.34;10449787;28;20049;-75
2022/10/17 07:28:21;;;;;;;3.17;0.60;;;;;;;9.01;86.40;100171.22;10447570;28;20041;-75
2022/10/17 07:33:23;;;;;;;1.65;0.40;;;;;;;8.85;87.50;100178.72;10432931;28;20041;-75
2022/10/17 07:38:26;;;;;;;2.25;0.93;;;;;;;8.71;89.02;100177.69;10449346;28;20042;-74
2022/10/17 07:43:29;;;;;;;1.42;0.60;;;;;;;8.65;89.31;100157.72;10449881;28;20045;-75
2022/10/17 07:48:31;;;;;;;2.40;0.70;;;;;;;8.58;90.87;100173.63;10432266;28;20048;-75
2022/10/17 07:53:36;;;;;;;3.67;0.70;;;;;;;8.48;90.95;100146.28;10448589;28;20052;-75
2022/10/17 07:58:39;;;;;;;2.15;0.57;;;;;;;8.45;92.01;100153.16;10448891;28;20641;-75
2022/10/17 08:03:42;;;;;;;2.25;0.70;;;;;;;8.47;92.49;100152.88;10448930;28;20045;-75
2022/10/17 08:08:45;;;;;;;1.15;0.47;;;;;;;8.35;93.07;100135.97;10443293;28;20515;-75
2022/10/17 08:13:47;;;;;;;1.02;0.38;;;;;;;8.27;93.02;100134.59;10447879;28;20404;-75
2022/10/17 08:18:49;;;;;;;1.60;0.50;;;;;;;8.20;93.40;100155.94;10449139;28;20052;-75
2022/10/17 08:23:52;;;;;;;0.95;0.50;;;;;;;8.19;94.62;100169.88;10448697;28;20052;-75
2022/10/17 08:28:54;;;;;;;3.17;0.65;;;;;;;8.19;96.10;100154.31;10443456;28;20048;-75
2022/10/17 08:33:56;;;;;;;3.55;0.75;;;;;;;8.16;96.13;100188.47;10447563;28;20045;-75
2022/10/17 08:39:04;;;;;;;3.67;0.57;;;;;;;8.18;96.99;100201.03;10447952;28;20045;-75
2022/10/17 08:44:32;;;;;;;2.25;0.70;;;;;;;8.24;98.43;100205.41;10447205;28;20053;-74
2022/10/17 08:49:56;;;;;;;4.43;0.77;;;;;;;8.35;98.59;100212.53;10446282;28;20048;-74
2022/10/17 08:54:58;;;;;;;3.90;1.55;;;;;;;8.43;99.12;100234.63;10429360;28;20065;-74
2022/10/17 09:00:01;;;;;;;3.45;0.68;;;;;;;8.49;99.51;100254.56;10429232;28;20037;-73
2022/10/17 09:05:23;;;;;;;4.03;0.85;;;;;;;8.54;100.00;100260.06;10445698;28;20049;-73
2022/10/17 09:10:52;;;;;;;1.55;0.55;;;;;;;8.59;99.85;100284.66;10437016;28;20042;-73
2022/10/17 09:16:37;;;;;;;1.63;0.70;;;;;;;8.65;99.89;100299.94;10445131;28;20069;-75
2022/10/17 09:21:43;;;;;;;0.98;0.43;;;;;;;8.67;100.00;100318.81;10445666;28;20046;-73
2022/10/17 09:26:45;;;;;;;3.13;0.77;;;;;;;8.67;100.00;100325.09;10426293;28;20053;-74
2022/10/17 09:32:02;;;;;;;1.58;0.70;;;;;;;8.68;100.00;100339.63;10431986;28;20056;-74
2022/10/17 09:37:11;;;;;;;2.38;0.70;;;;;;;8.68;100.00;100364.25;10466854;28;20056;-75
2022/10/17 09:42:18;;;;;;;5.20;1.08;;;;;;;8.68;100.00;100373.28;10462243;28;20038;-74
2022/10/17 09:47:40;;;;;;;1.42;0.70;;;;;;;8.71;100.00;100396.50;10443816;28;20041;-75
2022/10/17 09:52:46;;;;;;;3.20;0.70;;;;;;;8.69;100.00;100412.38;10454168;28;20052;-74
2022/10/17 09:57:57;;;;;;;3.17;1.00;;;;;;;8.72;100.00;100429.06;10402526;28;20047;-75
2022/10/17 10:03:23;;;;;;;4.60;0.90;;;;;;;8.73;100.00;100455.31;10421550;28;20419;-74
2022/10/17 10:08:31;;;;;;;2.15;1.00;;;;;;;8.75;100.00;100460.53;10444445;28;20053;-74
2022/10/17 10:13:34;;;;;;;1.75;0.70;;;;;;;8.76;100.00;100475.84;10443066;28;20048;-75
2022/10/17 10:18:36;;;;;;;2.67;1.00;;;;;;;8.74;100.00;100484.31;10442677;28;20510;-74
2022/10/17 10:23:42;;;;;;;1.80;1.00;;;;;;;8.72;100.00;100485.69;10443496;28;20447;-75
2022/10/17 10:28:53;;;;;;;3.53;1.35;;;;;;;8.69;100.00;100508.13;10435814;28;20057;-74
2022/10/17 10:33:55;;;;;;;3.60;1.10;;;;;;;8.62;100.00;100526.69;10428186;28;20050;-75
2022/10/17 10:38:58;;;;;;;1.98;0.85;;;;;;;8.63;100.00;100539.28;10430917;28;20061;-74
2022/10/17 10:44:02;;;;;;;2.38;0.70;;;;;;;8.62;99.84;100552.13;10442685;28;20049;-75
2022/10/17 10:49:26;;;;;;;2.88;1.38;;;;;;;8.62;98.73;100548.56;10446876;28;20507;-74
2022/10/17 10:54:33;;;;;;;1.80;0.82;;;;;;;8.62;98.08;100575.94;10441882;28;20033;-73
2022/10/17 10:59:57;;;;;;;2.05;1.00;;;;;;;8.62;98.22;100581.41;10450872;28;20580;-74
2022/10/17 11:05:17;;;;;;;1.40;0.90;;;;;;;8.62;97.23;100592.34;10450338;28;20419;-74
2022/10/17 11:10:25;;;;;;;7.93;1.17;;;;;;;8.63;97.33;100608.47;10449811;28;20037;-74
2022/10/17 11:15:30;;;;;;;2.17;0.55;;;;;;;8.62;97.15;100623.25;10449127;28;20441;-74
2022/10/17 11:20:40;;;;;;;1.20;0.70;;;;;;;8.67;95.28;100630.63;10451559;28;20060;-75
2022/10/17 11:25:42;;;;;;;1.95;0.60;;;;;;;8.76;94.87;100646.28;10450753;28;20057;-74
2022/10/17 11:30:44;;;;;;;0.95;0.50;;;;;;;8.81;93.60;100663.78;10450786;28;20451;-74
2022/10/17 11:35:49;;;;;;;2.72;1.08;;;;;;;8.86;93.62;100666.56;10453005;28;20566;-74
2022/10/17 11:40:55;;;;;;;2.38;0.82;;;;;;;8.88;92.64;100667.94;10450135;28;20042;-74
2022/10/17 11:46:01;;;;;;;4.72;1.77;;;;;;;8.92;93.12;100703.78;10447780;28;20041;-75
2022/10/17 11:51:09;;;;;;;2.20;1.42;;;;;;;8.94;92.34;100696.13;10448693;28;20045;-76
2022/10/17 11:56:14;;;;;;;4.57;1.13;;;;;;;8.98;90.97;100724.59;10448536;28;20050;-74
2022/10/17 12:01:31;;;;;;;4.45;1.60;;;;;;;9.06;91.30;100715.88;10447432;28;20041;-75
2022/10/17 12:06:39;;;;;;;4.68;0.90;;;;;;;9.12;90.26;100730.41;10449405;28;20049;-74
2022/10/17 12:11:41;;;;;;;2.08;0.90;;;;;;;9.16;90.44;100726.03;10449311;28;20045;-74
2022/10/17 12:16:44;;;;;;;4.20;1.40;;;;;;;9.17;90.54;100738.63;10448800;28;20535;-74
2022/10/17 12:22:02;;;;;;;4.65;1.55;;;;;;;9.20;90.81;100749.03;10446842;28;20038;-74
2022/10/17 12:27:37;;;;;;;2.50;1.58;;;;;;;9.24;89.98;100772.06;10465316;28;20514;-77
2022/10/17 12:33:00;;;;;;;8.20;1.42;;;;;;;9.30;89.82;100771.81;10446916;28;20049;-75
2022/10/17 12:38:14;;;;;;;2.15;0.88;;;;;;;9.27;90.31;100777.81;10446441;28;20491;-74
2022/10/17 12:43:16;;;;;;;3.67;1.50;;;;;;;9.24;90.55;100788.50;10448442;28;20054;-74
2022/10/17 12:48:37;;;;;;;2.30;0.95;;;;;;;9.20;91.27;100798.31;10447661;28;20048;-76
2022/10/17 12:53:45;;;;;;;5.97;1.55;;;;;;;9.21;91.48;100800.00;10448038;28;20034;-74
2022/10/17 12:58:49;;;;;;;1.73;1.00;;;;;;;9.24;91.44;100816.69;10436711;28;20060;-75
2022/10/17 13:03:52;;;;;;;3.53;1.30;;;;;;;9.25;91.06;100842.16;10424757;28;20048;-75
2022/10/17 13:09:01;;;;;;;4.50;0.88;;;;;;;9.26;91.31;100849.28;10443428;28;20040;-74
2022/10/17 13:14:10;;;;;;;2.90;1.20;;;;;;;9.26;91.24;100844.63;10441867;28;20633;-74
2022/10/17 13:19:15;;;;;;;1.90;0.88;;;;;;;9.25;90.91;100862.16;10439746;28;20045;-76
2022/10/17 13:24:23;;;;;;;2.30;0.90;;;;;;;9.24;91.12;100870.63;10438218;28;20061;-76
2022/10/17 13:29:27;;;;;;;3.95;1.40;;;;;;;9.25;91.20;100878.59;10445283;28;20452;-73
2022/10/17 13:34:31;;;;;;;1.88;0.90;;;;;;;9.27;91.25;100887.34;10442101;28;20037;-78
2022/10/17 13:39:38;;;;;;;3.17;1.00;;;;;;;9.28;90.48;100891.75;10442826;28;20566;-74
2022/10/17 13:44:41;;;;;;;1.13;0.77;;;;;;;9.30;90.16;100900.50;10441857;28;20049;-76
2022/10/17 13:49:44;;;;;;;4.50;0.93;;;;;;;9.30;90.32;100910.63;10427968;28;20068;-75
2022/10/17 13:54:50;;;;;;;2.47;0.52;;;;;;;9.26;89.89;100915.81;10442767;28;20052;-73
2022/10/17 14:00:06;;;;;;;3.53;0.80;;;;;;;9.26;89.26;100929.53;10443491;28;20049;-74
2022/10/17 14:05:17;;;;;;;1.00;0.70;;;;;;;9.24;89.90;100926.22;10444914;28;20065;-73
2022/10/17 14:10:38;;;;;;;1.90;0.63;;;;;;;9.26;89.52;100948.69;10443772;28;20045;-73
2022/10/17 14:15:44;;;;;;;2.42;0.73;;;;;;;9.25;89.11;100940.75;10442377;28;20038;-73
2022/10/17 14:20:48;;;;;;;5.72;0.88;;;;;;;9.20;89.41;100941.53;10446730;28;20045;-73
2022/10/17 14:26:04;;;;;;;1.67;0.55;;;;;;;9.20;88.82;100937.94;10457719;28;20096;-73
2022/10/17 14:31:16;;;;;;;4.07;0.65;;;;;;;9.20;88.42;100933.31;10454277;28;20065;-73
2022/10/17 14:36:20;;;;;;;2.88;0.80;;;;;;;9.25;87.90;100944.31;10450412;28;20044;-75
2022/10/17 14:41:30;;;;;;;1.67;0.50;;;;;;;9.33;87.77;100982.13;10452151;28;20037;-76
2022/10/17 14:46:34;;;;;;;3.28;0.70;;;;;;;9.41;87.87;100974.53;10456624;28;20400;-74
2022/10/17 14:51:36;;;;;;;2.67;0.73;;;;;;;9.35;88.13;100996.38;10452931;28;20049;-76
2022/10/17 14:56:40;;;;;;;2.70;0.65;;;;;;;9.33;87.63;100995.00;10458581;28;20393;-76
2022/10/17 15:01:42;;;;;;;4.43;0.70;;;;;;;9.29;87.59;100994.72;10458946;28;20037;-76
2022/10/17 15:06:53;;;;;;;3.58;0.50;;;;;;;9.33;87.44;101000.47;10458953;28;20068;-77
2022/10/17 15:11:59;;;;;;;2.38;0.52;;;;;;;9.36;87.21;101000.75;10455420;28;20045;-75
2022/10/17 15:17:01;;;;;;;3.17;1.20;;;;;;;9.44;86.69;101002.19;10459932;28;20540;-75
2022/10/17 15:22:04;;;;;;;3.92;0.65;;;;;;;9.44;86.70;101018.63;10458005;28;20422;-76
2022/10/17 15:27:14;;;;;;;1.65;0.60;;;;;;;9.33;85.74;101020.47;10456922;28;20052;-76
2022/10/17 15:32:16;;;;;;;3.33;0.70;;;;;;;9.31;86.39;101019.91;10455366;28;20526;-76
2022/10/17 15:37:23;;;;;;;1.83;0.90;;;;;;;9.46;85.86;101021.94;10450343;28;20052;-75
2022/10/17 15:42:27;;;;;;;1.30;0.60;;;;;;;9.48;85.40;101021.66;10445213;28;20072;-75
2022/10/17 15:47:34;;;;;;;3.58;0.60;;;;;;;9.43;84.92;101016.16;10448845;28;20041;-75
2022/10/17 15:52:36;;;;;;;4.15;0.82;;;;;;;9.46;85.42;101026.59;10444524;28;20046;-76
2022/10/17 15:57:43;;;;;;;0.93;0.45;;;;;;;9.42;84.35;101029.03;10444349;28;20061;-75
2022/10/17 16:02:46;;;;;;;0.95;0.70;;;;;;;9.36;84.66;101022.69;10446147;28;20048;-74
2022/10/17 16:07:48;;;;;;;1.15;0.35;;;;;;;9.30;84.57;101037.44;10442295;28;20037;-75
2022/10/17 16:12:51;;;;;;;1.48;0.68;;;;;;;9.30;83.71;101033.88;10442652;28;20049;-75
2022/10/17 16:17:55;;;;;;;2.83;0.70;;;;;;;9.36;83.40;101028.16;10446899;28;20054;-74
2022/10/17 16:23:01;;;;;;;2.72;0.47;;;;;;;9.36;83.12;101044.59;10438831;28;20050;-74
2022/10/17 16:28:05;;;;;;;2.40;0.50;;;;;;;9.35;81.88;101051.16;10449470;28;20041;-74
2022/10/17 16:33:08;;;;;;;2.45;0.60;;;;;;;9.41;82.17;101052.03;10447968;28;20045;-75
2022/10/17 16:38:10;;;;;;;2.13;0.70;;;;;;;9.38;81.24;101057.22;10446710;28;20041;-75
2022/10/17 16:43:13;;;;;;;2.20;0.82;;;;;;;9.33;82.16;101067.03;10441353;28;20037;-74
2022/10/17 16:48:16;;;;;;;2.10;0.90;;;;;;;9.40;81.31;101071.47;10442812;28;20061;-76
2022/10/17 16:53:18;;;;;;;2.88;1.02;;;;;;;9.50;81.30;101082.50;10425276;28;20041;-76
2022/10/17 16:58:20;;;;;;;2.38;1.00;;;;;;;9.48;81.03;101077.28;10445711;28;20043;-80
2022/10/17 17:03:23;;;;;;;1.80;0.73;;;;;;;9.47;81.06;101074.81;10441600;28;20554;-77
2022/10/17 17:08:25;;;;;;;0.70;0.60;;;;;;;9.39;80.57;101075.31;10439266;28;20538;-83
2022/10/17 17:13:28;;;;;;;1.25;0.80;;;;;;;9.36;80.41;101085.66;10440215;28;20054;-80
2022/10/17 17:18:30;;;;;;;1.63;0.90;;;;;;;9.34;81.04;101085.09;10438299;28;20096;-79
2022/10/17 17:23:39;;;;;;;1.20;0.75;;;;;;;9.35;80.74;101091.41;10423255;28;21732;-77
2022/10/17 17:28:42;;;;;;;1.58;0.60;;;;;;;9.36;80.51;101082.09;10431957;28;20072;-77
2022/10/17 17:34:04;;;;;;;1.33;0.70;;;;;;;9.32;80.75;101092.75;10435714;28;20416;-77
2022/10/17 17:39:10;;;;;;;1.65;0.60;;;;;;;9.42;80.10;101091.22;10438257;28;20094;-75
2022/10/17 17:44:13;;;;;;;0.40;0.40;;;;;;;9.38;80.03;101087.34;10438694;28;20052;-75
2022/10/17 17:49:16;;;;;;;1.35;0.75;;;;;;;9.29;79.59;101087.81;10410052;28;20038;-74
2022/10/17 17:54:19;;;;;;;0.63;0.30;;;;;;;9.28;79.43;101096.28;10433459;28;20041;-75
2022/10/17 17:59:22;;;;;;;3.97;0.60;;;;;;;9.31;79.76;101090.28;10441803;28;20041;-76
2022/10/17 18:04:24;;;;;;;1.75;0.70;;;;;;;9.28;80.35;101088.91;10439805;28;20412;-75
2022/10/17 18:09:27;;;;;;;1.95;0.50;;;;;;;9.28;80.39;101101.78;10443590;28;20045;-76
2022/10/17 18:14:29;;;;;;;1.38;0.70;;;;;;;9.28;80.93;101097.13;10439075;28;20054;-76
2022/10/17 18:19:31;;;;;;;0.65;0.50;;;;;;;9.27;80.46;101087.25;10440302;28;20037;-75
2022/10/17 18:24:33;;;;;;;1.58;0.90;;;;;;;9.26;81.39;101088.34;10444245;28;20053;-76
2022/10/17 18:29:36;;;;;;;1.70;0.68;;;;;;;9.29;81.29;101104.25;10434729;28;20041;-74
2022/10/17 18:34:42;;;;;;;3.35;0.60;;;;;;;9.29;81.50;101098.78;10444568;28;20052;-75
2022/10/17 18:39:48;;;;;;;3.42;0.50;;;;;;;9.30;82.51;101088.63;10439288;28;20084;-76
2022/10/17 18:44:50;;;;;;;3.25;0.57;;;;;;;9.36;82.34;101112.22;10423090;28;20037;-74
2022/10/17 18:49:52;;;;;;;0.80;0.45;;;;;;;9.36;82.89;101098.53;10443714;28;20052;-83
2022/10/17 18:54:55;;;;;;;1.00;0.75;;;;;;;9.34;83.18;101100.72;10431331;28;20029;-80
2022/10/17 18:59:58;;;;;;;1.85;0.68;;;;;;;9.36;83.03;101115.78;10443485;28;20520;-83
2022/10/17 19:05:00;;;;;;;0.68;0.52;;;;;;;9.35;82.76;101097.72;10440354;28;20056;-79
2022/10/17 19:10:03;;;;;;;0.60;0.50;;;;;;;9.29;83.54;101095.22;10444822;28;20057;-79
2022/10/17 19:15:07;;;;;;;2.70;0.52;;;;;;;9.29;83.96;101115.19;10469332;28;20407;-79
2022/10/17 19:20:09;;;;;;;0.40;0.40;;;;;;;9.28;84.55;101107.25;10449444;28;20060;-78
2022/10/17 19:25:12;;;;;;;0.70;0.50;;;;;;;9.21;85.05;101112.97;10415564;28;20056;-80
2022/10/17 19:30:15;;;;;;;4.13;0.65;;;;;;;9.22;85.16;101098.19;10434587;28;20558;-79
2022/10/17 19:35:17;;;;;;;0.90;0.50;;;;;;;9.25;84.69;101107.78;10449356;28;20038;-76
2022/10/17 19:40:20;;;;;;;2.80;0.77;;;;;;;9.23;84.68;101105.31;10447657;28;20447;-76
2022/10/17 19:45:22;;;;;;;2.75;0.95;;;;;;;9.22;85.33;101100.91;10431030;28;20057;-86
2022/10/17 19:50:25;;;;;;;2.47;0.75;;;;;;;9.20;85.82;101096.75;10447662;28;20048;-85
2022/10/17 19:55:27;;;;;;;0.95;0.50;;;;;;;9.18;87.04;101099.75;10465117;28;20053;-79
2022/10/17 20:00:30;;;;;;;2.63;0.88;;;;;;;9.24;86.43;101096.00;10453565;28;20516;-78
2022/10/17 20:05:32;;;;;;;3.05;0.50;;;;;;;9.21;86.90;101091.06;10459403;28;20052;-79
2022/10/17 20:10:35;;;;;;;0.65;0.40;;;;;;;9.28;86.79;101096.28;10445376;28;20046;-79
2022/10/17 20:15:38;;;;;;;2.53;0.70;;;;;;;9.32;86.82;101086.47;10446190;28;20045;-78
2022/10/17 20:20:40;;;;;;;1.90;0.38;;;;;;;9.30;86.86;101073.03;10396307;28;20045;-84
2022/10/17 20:25:42;;;;;;;1.90;0.50;;;;;;;9.47;86.87;101085.75;10444646;28;20442;-80
2022/10/17 20:30:45;;;;;;;4.22;0.60;;;;;;;9.49;86.08;101083.56;10431715;28;20566;-81
2022/10/17 20:35:47;;;;;;;31.98;9.40;;;;;;;9.47;85.87;101072.06;10450031;28;20529;-78
2022/10/17 20:40:50;;;;;;;0.70;0.40;;;;;;;9.42;85.74;101072.03;10448409;28;20052;-75
2022/10/17 20:45:52;;;;;;;1.23;1.00;;;;;;;9.44;85.75;101069.84;10428736;28;20041;-82
2022/10/17 20:51:01;;;;;;;1.83;0.57;;;;;;;9.43;85.51;101070.94;10443401;28;20041;-77
2022/10/17 20:56:11;;;;;;;1.65;0.50;;;;;;;9.34;86.01;101076.88;10445275;28;20049;-82
2022/10/17 21:01:13;;;;;;;3.88;1.02;;;;;;;9.30;85.90;101075.78;10443472;28;20048;-77
2022/10/17 21:06:16;;;;;;;4.18;1.45;;;;;;;9.22;85.57;101064.50;10445001;28;20057;-76
2022/10/17 21:11:21;;;;;;;26.02;8.85;;;;;;;9.17;86.28;101058.94;10445832;28;20052;-82
2022/10/17 21:16:25;;;;;;;4.22;1.58;;;;;;;9.13;86.75;101055.91;10445111;28;20049;-84
2022/10/17 21:21:29;;;;;;;2.95;1.08;;;;;;;9.15;86.87;101061.13;10443874;28;20526;-92
2022/10/17 21:26:35;;;;;;;5.88;1.77;;;;;;;9.27;87.21;101054.41;10446207;28;20518;-81
2022/10/17 21:31:40;;;;;;;2.38;0.80;;;;;;;9.24;87.15;101048.63;10427213;28;20041;-88
2022/10/17 21:36:43;;;;;;;1.48;0.80;;;;;;;9.19;87.05;101035.69;10404154;28;20033;-83
2022/10/17 21:41:45;;;;;;;1.50;0.77;;;;;;;9.22;87.32;101037.13;10443152;28;20068;-84
2022/10/17 21:46:48;;;;;;;0.73;0.50;;;;;;;9.31;87.70;101035.53;10443215;28;20045;-86
2022/10/17 21:51:50;;;;;;;1.55;0.45;;;;;;;9.26;88.03;101033.56;10447886;28;20041;-85
2022/10/17 21:56:53;;;;;;;1.80;1.13;;;;;;;9.30;87.57;101017.44;10447170;28;20038;-82
2022/10/17 22:01:56;;;;;;;1.58;0.35;;;;;;;9.26;88.25;101013.59;10443517;28;20411;-81
2022/10/17 22:06:58;;;;;;;2.88;0.50;;;;;;;9.20;87.74;101000.94;10446214;28;20052;-91
2022/10/17 22:12:00;;;;;;;3.08;0.60;;;;;;;9.16;87.50;100999.81;10442037;28;20060;-75
2022/10/17 22:17:02;;;;;;;2.03;0.50;;;;;;;9.15;88.33;100993.50;10440407;28;20048;-74
2022/10/17 22:22:04;;;;;;;2.03;0.68;;;;;;;9.17;87.99;100991.31;10443645;28;20053;-72
2022/10/17 22:27:09;;;;;;;2.15;0.45;;;;;;;9.22;88.02;100982.34;10434197;28;20052;-73
2022/10/17 22:32:11;;;;;;;3.47;0.63;;;;;;;9.30;87.86;100985.41;10441887;28;20053;-73
2022/10/17 22:37:13;;;;;;;1.48;0.40;;;;;;;9.23;87.32;100968.38;10447852;28;20048;-74
2022/10/17 22:42:34;;;;;;;2.50;0.57;;;;;;;9.28;87.44;100962.94;10434775;28;20038;-77
2022/10/17 22:47:36;;;;;;;1.20;0.30;;;;;;;9.25;87.57;100960.72;10448105;28;20049;-76
2022/10/17 22:52:39;;;;;;;0.98;0.75;;;;;;;9.15;87.92;100949.69;10448066;28;20539;-75
2022/10/17 22:57:41;;;;;;;0.57;0.38;;;;;;;9.22;88.68;100955.78;10454903;28;20492;-75
2022/10/17 23:02:43;;;;;;;2.45;0.60;;;;;;;9.18;88.23;100943.69;10436487;28;20629;-74
2022/10/17 23:07:46;;;;;;;1.55;0.57;;;;;;;9.09;89.18;100937.09;10447164;28;20037;-74
2022/10/17 23:12:49;;;;;;;0.95;0.40;;;;;;;9.08;88.67;100935.44;10447026;28;20037;-74
2022/10/17 23:17:52;;;;;;;3.00;0.55;;;;;;;9.05;89.71;100935.97;10458372;28;20046;-74
2022/10/17 23:22:54;;;;;;;2.63;0.40;;;;;;;9.11;89.17;100932.16;10430729;28;20052;-74
2022/10/17 23:27:56;;;;;;;3.45;0.50;;;;;;;9.10;89.46;100925.03;10443167;28;20049;-74
2022/10/17 23:32:59;;;;;;;3.05;0.60;;;;;;;9.07;89.92;100922.84;10445886;28;20045;-74
2022/10/17 23:38:01;;;;;;;2.00;0.45;;;;;;;9.17;89.61;100920.13;10432400;28;20041;-74